Hicksville, Virginia
Current Conditions -  °F | °C
As of 4:10 PM on Tuesday 21 Oct 2014 (Local Time) from KBLF Reporting Station
Overcast Overcast  
Wind Chill: 53°   Ceiling: 2600
Heat Index: 53°   Visibility: 10mi
Dew Point: 39°   Wind: 15mph
Humidity: 59%   Direction: 280°W
Pressure: 29.95"   Gusts: 21mph
Location:  37.1593°N, 81.1986°W
Report Text: KBLF 212010Z AUTO 28013G18KT 10SM BKN026 BKN034 OVC065 12/04 A2995 RMK AO2 T01170039
Loading
Personal Weather Stations






























Interactive Weather Map New forecast layout! Learn more

10-Day Weather Forecast

Advertisements
Track Severe Weather on mobile